Time;durP1;ratioP1;P1;durP2;ratioP2;P2;SDS_P1;SDS_P2;PMS_P1;PMS_P2;Temp;Humidity;BMP_temperature;BMP_pressure;BME280_temperature;BME280_humidity;BME280_pressure;Samples;Min_cycle;Max_cycle;Signal;HPM_P1;HPM_P2
2021/11/04 00:00:28;;;;;;;18.47;16.53;;;9.40;99.90;;;;;;4947542;29;20428;-50
2021/11/04 00:02:55;;;;;;;19.37;16.17;;;9.30;99.90;;;;;;4954352;29;20912;-48
2021/11/04 00:05:21;;;;;;;18.23;16.33;;;9.30;99.90;;;;;;4953288;29;20760;-52
2021/11/04 00:07:49;;;;;;;18.20;16.13;;;9.20;99.90;;;;;;4953998;29;20437;-48
2021/11/04 00:10:15;;;;;;;19.63;16.70;;;9.30;99.90;;;;;;4954028;29;20567;-51
2021/11/04 00:12:40;;;;;;;19.70;17.53;;;9.20;99.90;;;;;;4952558;29;21003;-48
2021/11/04 00:15:07;;;;;;;22.03;17.97;;;9.30;99.90;;;;;;4953622;29;20499;-51
2021/11/04 00:17:32;;;;;;;20.70;17.10;;;9.30;99.90;;;;;;4951438;29;20198;-49
2021/11/04 00:19:58;;;;;;;19.57;16.50;;;9.30;99.90;;;;;;4953504;29;20460;-49
2021/11/04 00:22:25;;;;;;;18.50;16.30;;;9.30;99.90;;;;;;4954226;29;20204;-48
2021/11/04 00:24:51;;;;;;;18.77;15.90;;;9.30;99.90;;;;;;4953722;29;20198;-51
2021/11/04 00:27:16;;;;;;;21.53;17.30;;;9.30;99.90;;;;;;4953502;29;20448;-51
2021/11/04 00:29:42;;;;;;;16.87;15.07;;;9.30;99.90;;;;;;4944864;29;20672;-47
2021/11/04 00:32:07;;;;;;;20.03;16.90;;;9.30;99.90;;;;;;4945103;29;20185;-50
2021/11/04 00:34:33;;;;;;;20.73;17.10;;;9.30;99.90;;;;;;4953849;29;20241;-50
2021/11/04 00:36:58;;;;;;;22.40;17.27;;;9.40;99.90;;;;;;4953445;29;20547;-53
2021/11/04 00:39:25;;;;;;;21.00;17.43;;;9.40;99.90;;;;;;4954344;29;20221;-50
2021/11/04 00:41:50;;;;;;;21.00;16.63;;;9.30;99.90;;;;;;4951651;29;20204;-52
2021/11/04 00:44:16;;;;;;;19.17;16.97;;;9.40;99.90;;;;;;4949686;29;20429;-52
2021/11/04 00:46:42;;;;;;;21.10;18.00;;;9.40;99.90;;;;;;4953484;29;20217;-47
2021/11/04 00:49:08;;;;;;;21.17;17.53;;;9.40;99.90;;;;;;4952466;28;20221;-51
2021/11/04 00:51:33;;;;;;;19.03;17.00;;;9.40;99.90;;;;;;4953687;29;20811;-50
2021/11/04 00:53:59;;;;;;;19.93;17.50;;;9.30;99.90;;;;;;4953156;29;20268;-49
2021/11/04 00:56:25;;;;;;;19.73;16.30;;;9.30;99.90;;;;;;4942474;29;20198;-51
2021/11/04 00:58:50;;;;;;;19.07;16.70;;;9.40;99.90;;;;;;4946849;29;20198;-49
2021/11/04 01:01:18;;;;;;;19.40;17.30;;;9.40;99.90;;;;;;4953281;29;20243;-51
2021/11/04 01:03:44;;;;;;;19.73;17.03;;;9.40;99.90;;;;;;4952970;29;20557;-50
2021/11/04 01:06:10;;;;;;;23.00;17.70;;;9.40;99.90;;;;;;4952362;29;20452;-49
2021/11/04 01:08:35;;;;;;;20.50;17.37;;;9.50;99.90;;;;;;4947507;29;20807;-50
2021/11/04 01:11:01;;;;;;;20.43;17.30;;;9.50;99.90;;;;;;4948348;29;20196;-47
2021/11/04 01:13:26;;;;;;;19.07;16.73;;;9.50;99.90;;;;;;4953126;29;20655;-51
2021/11/04 01:15:52;;;;;;;20.73;17.53;;;9.50;99.90;;;;;;4946985;29;20200;-51
2021/11/04 01:18:17;;;;;;;19.20;16.73;;;9.50;99.90;;;;;;4953056;29;20232;-51
2021/11/04 01:20:43;;;;;;;18.40;16.43;;;9.40;99.90;;;;;;4952854;29;20325;-50
2021/11/04 01:23:09;;;;;;;18.20;16.03;;;9.30;99.90;;;;;;4952912;29;20185;-48
2021/11/04 01:25:34;;;;;;;20.87;16.87;;;9.20;99.90;;;;;;4951496;29;20201;-50
2021/11/04 01:28:00;;;;;;;19.97;17.07;;;9.20;99.90;;;;;;4952124;29;20202;-52
2021/11/04 01:30:26;;;;;;;20.60;18.07;;;9.20;99.90;;;;;;4952726;29;20217;-51
2021/11/04 01:32:51;;;;;;;20.33;17.57;;;9.20;99.90;;;;;;4944809;29;20221;-47
2021/11/04 01:35:17;;;;;;;19.70;17.30;;;9.10;99.90;;;;;;4952339;29;20421;-53
2021/11/04 01:37:43;;;;;;;21.00;17.77;;;9.10;99.90;;;;;;4952930;29;20252;-48
2021/11/04 01:40:09;;;;;;;19.93;17.63;;;9.10;99.90;;;;;;4941325;29;20200;-46
2021/11/04 01:42:35;;;;;;;21.40;17.33;;;9.10;99.90;;;;;;4947822;29;20194;-48
2021/11/04 01:45:01;;;;;;;19.63;17.57;;;9.10;99.90;;;;;;4951991;29;20437;-51
2021/11/04 01:47:26;;;;;;;20.80;18.60;;;9.20;99.90;;;;;;4952386;29;20451;-51
2021/11/04 01:49:52;;;;;;;19.80;17.40;;;9.20;99.90;;;;;;4952037;29;20209;-49
2021/11/04 01:52:17;;;;;;;22.20;18.17;;;9.20;99.90;;;;;;4952512;29;20252;-50
2021/11/04 01:54:43;;;;;;;21.87;17.87;;;9.20;99.90;;;;;;4938161;29;20194;-50
2021/11/04 01:57:09;;;;;;;18.80;16.03;;;9.20;99.90;;;;;;4952738;29;20221;-51
2021/11/04 01:59:34;;;;;;;17.87;15.43;;;9.20;99.90;;;;;;4952160;28;20952;-53
2021/11/04 02:02:20;;;;;;;21.17;16.90;;;9.20;99.90;;;;;;4944450;29;20278;-53
2021/11/04 02:04:58;;;;;;;20.17;18.00;;;9.20;99.90;;;;;;4938715;29;20264;-47
2021/11/04 02:07:25;;;;;;;19.33;16.57;;;9.30;99.90;;;;;;4916273;29;20414;-51
2021/11/04 02:10:07;;;;;;;22.70;18.90;;;9.20;99.90;;;;;;4944601;29;20473;-47
2021/11/04 02:12:43;;;;;;;20.80;17.33;;;9.20;99.90;;;;;;4933450;29;20471;-51
2021/11/04 02:15:10;;;;;;;20.00;16.90;;;9.30;99.90;;;;;;4933220;29;21085;-50
2021/11/04 02:17:36;;;;;;;19.30;15.50;;;9.30;99.90;;;;;;4932068;29;21207;-47
2021/11/04 02:20:02;;;;;;;19.57;17.30;;;9.40;99.90;;;;;;4939179;29;20478;-48
2021/11/04 02:22:35;;;;;;;19.50;16.53;;;9.40;99.90;;;;;;4951331;29;20437;-48
2021/11/04 02:25:22;;;;;;;18.60;15.70;;;9.40;99.90;;;;;;4938794;29;20430;-49
2021/11/04 02:27:54;;;;;;;19.37;17.27;;;9.40;99.90;;;;;;4933133;29;20406;-48
2021/11/04 02:30:23;;;;;;;18.93;16.93;;;9.40;99.90;;;;;;4939649;29;20525;-50
2021/11/04 02:32:51;;;;;;;17.70;15.33;;;9.40;99.90;;;;;;4948216;28;20469;-51
2021/11/04 02:35:18;;;;;;;16.73;15.03;;;9.40;99.90;;;;;;4942613;28;20438;-47
2021/11/04 02:37:45;;;;;;;18.50;16.60;;;9.40;99.90;;;;;;4948035;29;20441;-47
2021/11/04 02:40:12;;;;;;;19.40;17.40;;;9.40;99.90;;;;;;4946807;29;20536;-49
2021/11/04 02:42:39;;;;;;;18.67;16.70;;;9.40;99.90;;;;;;4943649;29;20439;-51
2021/11/04 02:45:06;;;;;;;19.03;17.13;;;9.40;99.90;;;;;;4951147;29;20773;-53
2021/11/04 02:47:32;;;;;;;22.10;18.20;;;9.50;99.90;;;;;;4950865;29;20433;-47
2021/11/04 02:49:59;;;;;;;20.03;17.20;;;9.60;99.90;;;;;;4950696;29;20469;-49
2021/11/04 02:52:24;;;;;;;19.90;16.10;;;9.60;99.90;;;;;;4950522;29;20260;-48
2021/11/04 02:54:55;;;;;;;20.03;17.40;;;9.50;99.90;;;;;;4940792;29;20953;-51
2021/11/04 02:57:21;;;;;;;19.47;16.37;;;9.60;99.90;;;;;;4934485;29;20196;-48
2021/11/04 02:59:48;;;;;;;19.87;17.27;;;9.50;99.90;;;;;;4950216;29;20433;-50
2021/11/04 03:02:14;;;;;;;19.60;17.17;;;9.40;99.90;;;;;;4947889;29;20443;-48
2021/11/04 03:04:40;;;;;;;20.70;17.70;;;9.40;99.90;;;;;;4951455;29;20418;-47
2021/11/04 03:07:05;;;;;;;19.93;16.80;;;9.40;99.90;;;;;;4951293;29;20425;-50
2021/11/04 03:09:31;;;;;;;18.57;16.20;;;9.40;99.90;;;;;;4937406;29;20269;-50
2021/11/04 03:11:58;;;;;;;18.83;16.17;;;9.40;99.90;;;;;;4949050;28;21018;-50
2021/11/04 03:14:23;;;;;;;17.80;15.90;;;9.40;99.90;;;;;;4941955;29;20449;-53
2021/11/04 03:16:53;;;;;;;18.87;16.80;;;9.40;99.90;;;;;;4948942;29;20422;-51
2021/11/04 03:19:21;;;;;;;18.50;16.50;;;9.50;99.90;;;;;;4951634;29;20285;-56
2021/11/04 03:21:49;;;;;;;22.00;18.10;;;9.50;99.90;;;;;;4950260;29;20449;-51
2021/11/04 03:24:20;;;;;;;19.10;16.93;;;9.50;99.90;;;;;;4951258;29;20975;-58
2021/11/04 03:26:49;;;;;;;19.97;16.87;;;9.60;99.90;;;;;;4950800;29;20429;-53
2021/11/04 03:29:17;;;;;;;19.23;17.23;;;9.60;99.90;;;;;;4950536;29;20966;-48
2021/11/04 03:31:44;;;;;;;19.20;17.00;;;9.60;99.90;;;;;;4946697;29;20429;-51
2021/11/04 03:34:10;;;;;;;18.63;16.10;;;9.50;99.90;;;;;;4950441;29;20465;-53
2021/11/04 03:36:37;;;;;;;17.47;15.20;;;9.50;99.90;;;;;;4951323;29;21222;-48
2021/11/04 03:39:04;;;;;;;19.60;16.77;;;9.50;99.90;;;;;;4944977;29;21203;-56
2021/11/04 03:41:31;;;;;;;19.20;16.77;;;9.50;99.90;;;;;;4938957;29;20521;-49
2021/11/04 03:43:58;;;;;;;18.10;16.10;;;9.50;99.90;;;;;;4948929;29;21725;-55
2021/11/04 03:46:24;;;;;;;18.07;16.17;;;9.50;99.90;;;;;;4952108;29;20815;-52
2021/11/04 03:48:52;;;;;;;19.23;16.37;;;9.50;99.90;;;;;;4940977;29;20468;-52
2021/11/04 03:51:19;;;;;;;18.33;16.20;;;9.50;99.90;;;;;;4950202;29;20433;-53
2021/11/04 03:53:46;;;;;;;18.70;16.43;;;9.50;99.90;;;;;;4935623;29;20935;-52
2021/11/04 03:56:12;;;;;;;19.20;16.50;;;9.50;99.90;;;;;;4952093;29;20586;-49
2021/11/04 03:58:40;;;;;;;18.10;16.23;;;9.50;99.90;;;;;;4950589;29;20451;-51
2021/11/04 04:01:06;;;;;;;18.53;16.57;;;9.50;99.90;;;;;;4943073;29;20505;-48
2021/11/04 04:03:32;;;;;;;22.43;17.57;;;9.50;99.90;;;;;;4952535;29;20426;-51
2021/11/04 04:06:09;;;;;;;18.70;16.33;;;9.50;99.90;;;;;;4951858;29;20445;-49
2021/11/04 04:08:41;;;;;;;17.33;15.47;;;9.50;99.90;;;;;;4952262;29;20232;-52
2021/11/04 04:11:07;;;;;;;19.83;16.47;;;9.50;99.90;;;;;;4950828;29;20882;-49
2021/11/04 04:13:32;;;;;;;21.13;17.27;;;9.60;99.90;;;;;;4952514;29;20513;-52
2021/11/04 04:15:58;;;;;;;18.83;16.73;;;9.60;99.90;;;;;;4952419;29;20668;-49
2021/11/04 04:18:24;;;;;;;19.50;16.70;;;9.70;99.90;;;;;;4951735;29;20198;-52
2021/11/04 04:20:50;;;;;;;19.57;16.53;;;9.60;99.90;;;;;;4951756;29;20654;-48
2021/11/04 04:23:17;;;;;;;18.67;16.50;;;9.70;99.90;;;;;;4952641;28;20480;-49
2021/11/04 04:25:43;;;;;;;20.50;16.87;;;9.70;99.90;;;;;;4955577;29;20440;-49
2021/11/04 04:28:09;;;;;;;18.43;16.47;;;9.60;99.90;;;;;;4955459;29;20444;-51
2021/11/04 04:30:35;;;;;;;21.47;16.57;;;9.60;99.90;;;;;;4949469;29;20473;-51
2021/11/04 04:33:01;;;;;;;20.20;17.17;;;9.50;99.90;;;;;;4954137;29;20236;-47
2021/11/04 04:35:26;;;;;;;19.60;16.57;;;9.50;99.90;;;;;;4954977;29;20429;-52
2021/11/04 04:37:52;;;;;;;20.53;16.70;;;9.50;99.90;;;;;;4947318;29;20224;-50
2021/11/04 04:40:18;;;;;;;21.27;18.17;;;9.50;99.90;;;;;;4944641;29;20194;-51
2021/11/04 04:42:44;;;;;;;19.80;17.10;;;9.40;99.90;;;;;;4948550;29;20237;-51
2021/11/04 04:45:09;;;;;;;21.13;17.30;;;9.40;99.90;;;;;;4952908;29;20178;-54
2021/11/04 04:47:35;;;;;;;21.47;17.70;;;9.40;99.90;;;;;;4951523;29;20444;-50
2021/11/04 04:50:01;;;;;;;25.00;17.67;;;9.40;99.90;;;;;;4947956;29;20220;-50
2021/11/04 04:52:29;;;;;;;22.77;18.30;;;9.40;99.90;;;;;;4942862;29;20583;-50
2021/11/04 04:54:56;;;;;;;21.80;18.47;;;9.30;99.90;;;;;;4948706;29;20225;-49
2021/11/04 04:57:23;;;;;;;21.10;18.13;;;9.40;99.90;;;;;;4936359;29;20434;-47
2021/11/04 04:59:56;;;;;;;22.17;17.47;;;9.40;99.90;;;;;;4942859;29;20429;-60
2021/11/04 05:02:22;;;;;;;23.57;19.20;;;9.30;99.90;;;;;;4943339;29;20438;-59
2021/11/04 05:04:48;;;;;;;21.30;18.27;;;9.20;99.90;;;;;;4941737;29;20923;-60
2021/11/04 05:07:14;;;;;;;24.70;20.33;;;9.20;99.90;;;;;;4935953;29;20434;-58
2021/11/04 05:09:40;;;;;;;27.97;19.90;;;9.10;99.90;;;;;;4941484;29;20504;-59
2021/11/04 05:12:05;;;;;;;23.17;19.80;;;9.10;99.90;;;;;;4942294;29;20504;-60
2021/11/04 05:14:31;;;;;;;26.23;20.43;;;9.10;99.90;;;;;;4938387;29;20262;-59
2021/11/04 05:16:56;;;;;;;24.50;19.20;;;9.10;99.90;;;;;;4944989;29;20936;-60
2021/11/04 05:19:22;;;;;;;22.67;18.60;;;9.00;99.90;;;;;;4949749;29;20200;-61
2021/11/04 05:21:48;;;;;;;23.10;19.10;;;9.00;99.90;;;;;;4942588;29;20194;-60
2021/11/04 05:24:13;;;;;;;22.30;19.23;;;9.00;99.90;;;;;;4943948;29;20217;-60
2021/11/04 05:26:39;;;;;;;24.43;19.83;;;8.90;99.90;;;;;;4943598;29;20201;-60
2021/11/04 05:29:04;;;;;;;25.00;19.20;;;8.90;99.90;;;;;;4951864;29;20210;-60
2021/11/04 05:31:31;;;;;;;34.23;20.80;;;8.90;99.90;;;;;;4949227;29;20194;-60
2021/11/04 05:33:57;;;;;;;25.00;19.63;;;8.90;99.90;;;;;;4945512;28;20232;-61
2021/11/04 05:36:23;;;;;;;26.33;20.77;;;8.90;99.90;;;;;;4952874;29;20913;-61
2021/11/04 05:38:50;;;;;;;27.43;21.43;;;8.90;99.90;;;;;;4952027;29;20924;-61
2021/11/04 05:41:17;;;;;;;26.50;20.87;;;8.80;99.90;;;;;;4952711;29;20429;-61
2021/11/04 05:43:42;;;;;;;24.70;20.43;;;8.80;99.90;;;;;;4952877;29;20425;-61
2021/11/04 05:46:08;;;;;;;28.37;21.87;;;8.90;99.90;;;;;;4934587;29;20452;-61
2021/11/04 05:48:33;;;;;;;32.87;21.77;;;8.90;99.90;;;;;;4952798;29;20193;-61
2021/11/04 05:50:59;;;;;;;27.80;20.70;;;8.90;99.90;;;;;;4945976;29;20193;-58
2021/11/04 05:53:25;;;;;;;29.30;21.37;;;8.80;99.90;;;;;;4933310;29;20244;-61
2021/11/04 05:55:51;;;;;;;29.23;22.47;;;8.70;99.90;;;;;;4945980;29;20189;-61
2021/11/04 05:58:17;;;;;;;28.20;21.70;;;8.70;99.90;;;;;;4948171;28;20916;-61
2021/11/04 06:00:43;;;;;;;33.90;22.17;;;8.80;99.90;;;;;;4947805;29;21097;-62
2021/11/04 06:03:11;;;;;;;26.87;20.33;;;8.70;99.90;;;;;;4946133;29;20421;-61
2021/11/04 06:05:37;;;;;;;26.73;21.03;;;8.70;99.90;;;;;;4952064;29;20556;-56
2021/11/04 06:08:03;;;;;;;29.40;22.30;;;8.80;99.90;;;;;;4945380;29;20442;-61
2021/11/04 06:10:28;;;;;;;36.40;23.27;;;8.80;99.90;;;;;;4946248;29;20232;-61
2021/11/04 06:12:54;;;;;;;28.30;22.10;;;8.70;99.90;;;;;;4952528;29;20196;-61
2021/11/04 06:15:19;;;;;;;30.60;22.10;;;8.80;99.90;;;;;;4951155;29;20210;-61
2021/11/04 06:17:45;;;;;;;30.30;20.57;;;8.70;99.90;;;;;;4935102;29;20280;-61
2021/11/04 06:20:11;;;;;;;27.70;21.13;;;8.70;99.90;;;;;;4946311;29;20198;-61
2021/11/04 06:22:36;;;;;;;28.53;20.60;;;8.70;99.90;;;;;;4942047;29;20280;-61
2021/11/04 06:25:03;;;;;;;25.80;20.90;;;8.70;99.90;;;;;;4951380;29;20189;-60
2021/11/04 06:27:29;;;;;;;27.20;20.57;;;8.70;99.90;;;;;;4951541;29;20227;-61
2021/11/04 06:29:55;;;;;;;26.67;20.87;;;8.60;99.90;;;;;;4952140;29;20504;-61
2021/11/04 06:32:21;;;;;;;28.47;21.20;;;8.60;99.90;;;;;;4951421;29;20184;-60
2021/11/04 06:34:47;;;;;;;24.40;20.03;;;8.60;99.90;;;;;;4945356;29;20189;-61
2021/11/04 06:37:12;;;;;;;27.70;20.67;;;8.60;99.90;;;;;;4952161;29;20421;-60
2021/11/04 06:39:38;;;;;;;23.83;19.23;;;8.50;99.90;;;;;;4950695;29;20178;-61
2021/11/04 06:42:04;;;;;;;27.90;19.80;;;8.50;99.90;;;;;;4935376;29;20205;-60
2021/11/04 06:44:29;;;;;;;23.57;18.23;;;8.50;99.90;;;;;;4953315;29;20209;-60
2021/11/04 06:47:00;;;;;;;22.90;17.33;;;8.40;99.90;;;;;;4953251;28;20413;-54
2021/11/04 06:49:28;;;;;;;22.57;18.23;;;8.40;99.90;;;;;;4952155;29;20259;-61
2021/11/04 06:51:56;;;;;;;22.60;16.93;;;8.30;99.90;;;;;;4953329;29;20473;-60
2021/11/04 06:54:25;;;;;;;20.90;15.77;;;8.40;99.90;;;;;;4949181;29;21175;-53
2021/11/04 06:56:53;;;;;;;21.10;16.83;;;8.40;99.90;;;;;;4952911;29;20432;-62
2021/11/04 06:59:24;;;;;;;23.00;16.90;;;8.30;99.90;;;;;;4952875;29;20426;-61
2021/11/04 07:01:51;;;;;;;20.33;16.37;;;8.30;99.90;;;;;;4952017;29;20476;-61
2021/11/04 07:04:32;;;;;;;19.17;14.57;;;8.20;99.90;;;;;;4937515;29;20493;-56
2021/11/04 07:07:03;;;;;;;19.57;15.10;;;8.20;99.90;;;;;;4946579;29;20445;-62
2021/11/04 07:09:30;;;;;;;18.70;15.03;;;8.20;99.90;;;;;;4934818;29;20969;-60
2021/11/04 07:11:57;;;;;;;19.63;15.33;;;8.20;99.90;;;;;;4933731;29;20402;-60
2021/11/04 07:14:30;;;;;;;18.63;13.90;;;8.20;99.90;;;;;;4948346;29;20819;-57
2021/11/04 07:16:57;;;;;;;18.70;14.80;;;8.10;99.90;;;;;;4944169;29;20532;-59
2021/11/04 07:19:23;;;;;;;18.17;14.77;;;8.10;99.90;;;;;;4953154;29;20428;-60
2021/11/04 07:22:23;;;;;;;17.70;14.47;;;8.10;99.90;;;;;;4952201;29;20441;-60
2021/11/04 07:25:10;;;;;;;18.00;14.83;;;8.00;99.90;;;;;;4949948;29;20449;-53
2021/11/04 07:27:59;;;;;;;19.53;14.50;;;8.00;99.90;;;;;;4936487;29;20784;-61
2021/11/04 07:30:29;;;;;;;16.67;13.83;;;8.00;99.90;;;;;;4950798;29;20492;-60
2021/11/04 07:32:58;;;;;;;16.57;13.13;;;8.10;99.90;;;;;;4930733;29;20475;-60
2021/11/04 07:35:29;;;;;;;17.00;13.40;;;8.10;99.90;;;;;;4936857;29;20434;-60
2021/11/04 07:37:56;;;;;;;16.57;13.10;;;8.10;99.90;;;;;;4941023;29;20421;-61
2021/11/04 07:40:25;;;;;;;13.37;11.50;;;8.00;99.90;;;;;;4950538;29;20476;-60
2021/11/04 07:42:51;;;;;;;14.07;11.80;;;8.10;99.90;;;;;;4952563;29;20513;-60
2021/11/04 07:45:18;;;;;;;15.40;11.87;;;8.00;99.90;;;;;;4951282;29;20400;-60
2021/11/04 07:47:46;;;;;;;13.30;10.70;;;8.00;99.90;;;;;;4942998;29;20787;-60
2021/11/04 07:50:15;;;;;;;13.63;11.47;;;8.00;99.90;;;;;;4942853;29;20819;-60
2021/11/04 07:52:41;;;;;;;12.83;11.50;;;7.90;99.90;;;;;;4951112;29;20441;-57
2021/11/04 07:55:10;;;;;;;10.77;9.63;;;8.00;99.90;;;;;;4951479;29;20417;-58
2021/11/04 07:57:37;;;;;;;11.70;10.13;;;7.90;99.90;;;;;;4936358;29;20901;-59
2021/11/04 08:00:09;;;;;;;12.50;10.10;;;7.80;99.90;;;;;;4935547;29;20788;-59
2021/11/04 08:02:35;;;;;;;12.60;9.30;;;7.80;99.90;;;;;;4934007;29;20441;-53
2021/11/04 08:05:01;;;;;;;11.40;8.97;;;7.80;99.90;;;;;;4935978;29;20547;-56
2021/11/04 08:07:31;;;;;;;12.00;9.60;;;7.70;99.90;;;;;;4941308;29;20888;-57
2021/11/04 08:09:56;;;;;;;10.40;9.30;;;7.70;99.90;;;;;;4951415;29;20503;-59
2021/11/04 08:12:22;;;;;;;12.17;10.33;;;7.80;99.90;;;;;;4948267;29;20842;-58
2021/11/04 08:14:48;;;;;;;13.10;8.60;;;7.80;99.90;;;;;;4936288;29;20590;-52
2021/11/04 08:17:13;;;;;;;11.07;9.60;;;7.80;99.90;;;;;;4946270;29;20232;-60
2021/11/04 08:19:39;;;;;;;10.97;8.70;;;7.80;99.90;;;;;;4952215;29;20189;-58
2021/11/04 08:22:05;;;;;;;10.47;9.20;;;7.80;99.90;;;;;;4948106;29;20198;-59
2021/11/04 08:24:31;;;;;;;12.30;9.70;;;7.80;99.90;;;;;;4952967;29;20216;-55
2021/11/04 08:26:57;;;;;;;15.90;9.40;;;7.80;99.90;;;;;;4952507;29;20536;-58
2021/11/04 08:29:22;;;;;;;11.30;8.73;;;7.90;99.90;;;;;;4948416;29;20998;-56
2021/11/04 08:31:48;;;;;;;14.33;9.77;;;8.00;99.90;;;;;;4949308;29;20524;-56
2021/11/04 08:34:13;;;;;;;10.73;9.63;;;8.00;99.90;;;;;;4942175;29;20292;-54
2021/11/04 08:36:39;;;;;;;8.80;7.53;;;8.10;99.90;;;;;;4946552;29;20185;-59
2021/11/04 08:39:05;;;;;;;9.40;7.73;;;8.10;99.90;;;;;;4952939;29;20188;-58
2021/11/04 08:41:30;;;;;;;8.57;7.20;;;8.10;99.90;;;;;;4946076;29;20903;-59
2021/11/04 08:43:56;;;;;;;8.97;7.10;;;8.10;99.90;;;;;;4944235;29;20189;-59
2021/11/04 08:46:21;;;;;;;7.83;6.97;;;8.00;99.90;;;;;;4952909;29;20196;-60
2021/11/04 08:48:47;;;;;;;9.53;8.00;;;8.00;99.90;;;;;;4941137;29;20194;-60
2021/11/04 08:51:13;;;;;;;8.50;7.63;;;8.00;99.90;;;;;;4949858;29;20182;-59
2021/11/04 08:53:40;;;;;;;9.00;7.90;;;8.00;99.90;;;;;;4952401;29;20220;-60
2021/11/04 08:56:06;;;;;;;7.50;6.60;;;8.00;99.90;;;;;;4951931;29;20429;-59
2021/11/04 08:58:32;;;;;;;7.20;6.50;;;7.90;99.90;;;;;;4950467;29;20523;-60
2021/11/04 09:00:58;;;;;;;7.47;6.43;;;8.00;99.90;;;;;;4934039;29;21285;-60
2021/11/04 09:03:23;;;;;;;6.53;5.73;;;8.00;99.90;;;;;;4945820;29;20232;-60
2021/11/04 09:05:49;;;;;;;6.37;5.77;;;8.00;99.90;;;;;;4950827;29;20186;-58
2021/11/04 09:08:14;;;;;;;7.33;6.10;;;8.00;99.90;;;;;;4934849;29;20240;-59
2021/11/04 09:10:40;;;;;;;5.60;4.97;;;8.10;99.90;;;;;;4949579;29;20217;-59
2021/11/04 09:13:08;;;;;;;5.70;5.10;;;8.00;99.90;;;;;;4952660;29;20189;-59
2021/11/04 09:15:34;;;;;;;6.20;5.57;;;8.00;99.90;;;;;;4923965;29;20457;-58
2021/11/04 09:18:01;;;;;;;7.00;5.47;;;8.00;99.90;;;;;;4952634;29;20433;-57
2021/11/04 09:20:27;;;;;;;5.83;5.23;;;8.00;99.90;;;;;;4950213;29;20445;-58
2021/11/04 09:22:52;;;;;;;5.70;5.20;;;8.00;99.90;;;;;;4948041;29;21209;-57
2021/11/04 09:25:22;;;;;;;5.50;5.00;;;7.90;99.90;;;;;;4951816;29;20660;-59
2021/11/04 09:27:50;;;;;;;8.37;5.07;;;8.00;99.90;;;;;;4952557;29;20564;-59
2021/11/04 09:30:18;;;;;;;6.00;4.90;;;8.00;99.90;;;;;;4952325;29;20476;-59
2021/11/04 09:32:45;;;;;;;6.43;5.23;;;8.10;99.90;;;;;;4945882;29;20492;-59
2021/11/04 09:35:13;;;;;;;5.90;5.07;;;8.00;99.90;;;;;;4952488;29;21389;-59
2021/11/04 09:37:39;;;;;;;4.40;4.00;;;7.90;99.90;;;;;;4952436;29;20429;-59
2021/11/04 09:40:06;;;;;;;5.00;4.27;;;7.90;99.90;;;;;;4948177;29;20774;-59
2021/11/04 09:42:33;;;;;;;5.93;5.27;;;7.90;99.90;;;;;;4951290;29;20433;-59
2021/11/04 09:44:59;;;;;;;4.93;4.30;;;7.90;99.90;;;;;;4951667;29;20441;-60
2021/11/04 09:47:29;;;;;;;5.33;4.20;;;7.90;99.90;;;;;;4951752;29;20544;-58
2021/11/04 09:49:56;;;;;;;5.80;4.63;;;7.80;99.90;;;;;;4950699;29;20475;-59
2021/11/04 09:52:28;;;;;;;5.47;4.97;;;7.90;99.90;;;;;;4952123;29;20428;-58
2021/11/04 09:54:55;;;;;;;5.10;4.43;;;8.00;99.90;;;;;;4939063;29;20792;-59
2021/11/04 09:57:25;;;;;;;4.10;3.60;;;8.00;99.90;;;;;;4951317;29;20432;-59
2021/11/04 09:59:53;;;;;;;4.17;3.77;;;7.90;99.90;;;;;;4939416;29;20836;-58
2021/11/04 10:02:20;;;;;;;5.43;4.37;;;8.00;99.90;;;;;;4944750;29;20421;-59
2021/11/04 10:04:47;;;;;;;4.23;3.80;;;7.90;99.90;;;;;;4950516;29;20449;-60
2021/11/04 10:07:14;;;;;;;4.37;3.97;;;7.90;99.90;;;;;;4950408;29;20452;-57
2021/11/04 10:09:41;;;;;;;3.60;3.20;;;8.00;99.90;;;;;;4951482;29;20461;-59
2021/11/04 10:12:12;;;;;;;4.53;4.13;;;7.90;99.90;;;;;;4949950;29;20441;-59
2021/11/04 10:14:39;;;;;;;4.13;3.73;;;7.90;99.90;;;;;;4951098;29;20437;-59
2021/11/04 10:17:23;;;;;;;4.00;3.60;;;7.90;99.90;;;;;;4950833;29;20927;-58
2021/11/04 10:19:49;;;;;;;3.60;3.27;;;7.90;99.90;;;;;;4950600;28;20448;-60
2021/11/04 10:22:26;;;;;;;3.53;3.23;;;8.00;99.90;;;;;;4951291;29;20778;-58
2021/11/04 10:24:52;;;;;;;3.63;3.30;;;7.90;99.90;;;;;;4943769;29;20212;-60
2021/11/04 10:27:29;;;;;;;3.27;2.97;;;7.90;99.90;;;;;;4951302;29;20429;-58
2021/11/04 10:29:55;;;;;;;3.90;3.53;;;7.80;99.90;;;;;;4949960;29;20245;-60
2021/11/04 10:32:31;;;;;;;3.10;2.80;;;7.90;99.90;;;;;;4933022;29;20458;-60
2021/11/04 10:35:05;;;;;;;3.93;3.57;;;7.80;99.90;;;;;;4947830;29;20201;-59
2021/11/04 10:37:34;;;;;;;3.63;3.33;;;7.90;99.90;;;;;;4951155;29;20424;-59
2021/11/04 10:40:06;;;;;;;3.90;3.40;;;7.90;99.90;;;;;;4948728;29;20619;-59
2021/11/04 10:42:54;;;;;;;4.20;3.77;;;8.00;99.90;;;;;;4947298;29;20456;-59
2021/11/04 10:45:25;;;;;;;3.50;3.20;;;8.00;99.90;;;;;;4949739;29;20424;-59
2021/11/04 10:48:16;;;;;;;3.20;2.90;;;8.00;99.90;;;;;;4944154;29;20460;-59
2021/11/04 10:50:43;;;;;;;3.70;3.20;;;8.00;99.90;;;;;;4948884;29;20472;-60
2021/11/04 10:53:10;;;;;;;2.97;2.63;;;8.10;99.90;;;;;;4947518;29;20527;-58
2021/11/04 10:55:36;;;;;;;3.07;2.77;;;8.00;99.90;;;;;;4951017;29;20432;-57
2021/11/04 10:58:07;;;;;;;3.00;2.73;;;8.00;99.90;;;;;;4949260;29;20433;-58
2021/11/04 11:00:40;;;;;;;3.33;2.90;;;8.00;99.90;;;;;;4950463;29;20195;-59
2021/11/04 11:03:12;;;;;;;2.50;2.30;;;8.10;99.90;;;;;;4949573;29;20939;-58
2021/11/04 11:05:42;;;;;;;2.20;2.10;;;8.10;99.90;;;;;;4949363;29;20441;-60
2021/11/04 11:08:09;;;;;;;2.30;2.10;;;8.10;99.90;;;;;;4938577;29;20438;-55
2021/11/04 11:10:40;;;;;;;2.10;1.90;;;8.00;99.90;;;;;;4948931;29;20936;-59
2021/11/04 11:13:06;;;;;;;1.77;1.67;;;8.00;99.90;;;;;;4950786;29;20444;-57
2021/11/04 11:15:34;;;;;;;2.33;2.13;;;8.00;99.90;;;;;;4949641;29;20471;-57
2021/11/04 11:18:05;;;;;;;3.20;2.30;;;8.00;99.90;;;;;;4929915;29;20442;-57
2021/11/04 11:20:32;;;;;;;2.20;2.00;;;7.90;99.90;;;;;;4936545;29;20493;-59
2021/11/04 11:23:02;;;;;;;2.27;2.00;;;7.90;99.90;;;;;;4949787;29;20503;-59
2021/11/04 11:25:35;;;;;;;2.80;2.47;;;7.90;99.90;;;;;;4930485;29;20452;-58
2021/11/04 11:28:01;;;;;;;2.57;2.27;;;7.80;99.90;;;;;;4950363;29;20434;-57
2021/11/04 11:30:27;;;;;;;1.90;1.70;;;7.80;99.90;;;;;;4950678;29;20472;-58
2021/11/04 11:33:16;;;;;;;2.17;1.70;;;7.80;99.90;;;;;;4950934;28;20221;-57
2021/11/04 11:36:02;;;;;;;1.63;1.53;;;7.70;99.90;;;;;;4953786;29;20657;-59
2021/11/04 11:38:28;;;;;;;3.90;1.90;;;7.80;99.90;;;;;;4952331;29;20527;-55
2021/11/04 11:41:01;;;;;;;2.50;2.13;;;7.70;99.90;;;;;;4945953;29;20508;-59
2021/11/04 11:43:51;;;;;;;2.13;1.93;;;7.70;99.90;;;;;;4953571;29;20631;-59
2021/11/04 11:46:16;;;;;;;1.60;1.50;;;7.60;99.90;;;;;;4954350;29;20425;-60
2021/11/04 11:48:42;;;;;;;1.60;1.47;;;7.50;99.90;;;;;;4952625;29;20435;-59
2021/11/04 11:51:08;;;;;;;4.23;1.83;;;7.50;99.90;;;;;;4944775;29;20301;-58
2021/11/04 11:53:39;;;;;;;2.07;1.87;;;7.50;99.90;;;;;;4941500;29;20736;-57
2021/11/04 11:56:07;;;;;;;1.50;1.40;;;7.50;99.90;;;;;;4953432;29;20655;-57
2021/11/04 11:58:47;;;;;;;2.23;1.97;;;7.40;99.90;;;;;;4953965;29;20425;-54
2021/11/04 12:01:18;;;;;;;2.00;1.90;;;7.40;99.90;;;;;;4953470;29;20425;-57
2021/11/04 12:03:52;;;;;;;2.10;1.90;;;7.40;99.90;;;;;;4941396;29;20477;-57
2021/11/04 12:06:20;;;;;;;1.65;1.30;;;7.40;99.90;;;;;;4946310;29;20465;-58
2021/11/04 12:09:00;;;;;;;2.27;2.03;;;7.30;99.90;;;;;;4952780;29;20185;-60
2021/11/04 12:11:35;;;;;;;1.70;1.60;;;7.30;99.90;;;;;;4949691;29;20789;-58
2021/11/04 12:14:18;;;;;;;2.20;2.00;;;7.30;99.90;;;;;;4953178;29;20818;-52
2021/11/04 12:17:08;;;;;;;1.90;1.60;;;7.20;99.90;;;;;;4953235;29;20507;-56
2021/11/04 12:19:47;;;;;;;2.00;1.80;;;7.20;99.90;;;;;;4953342;29;20193;-59
2021/11/04 12:22:25;;;;;;;1.87;1.70;;;7.20;99.90;;;;;;4944895;29;20273;-58
2021/11/04 12:24:52;;;;;;;3.00;1.70;;;7.30;99.90;;;;;;4953029;29;20417;-58
2021/11/04 12:27:21;;;;;;;3.00;1.77;;;7.20;99.90;;;;;;4953180;29;20420;-58
2021/11/04 12:29:48;;;;;;;1.98;1.77;;;7.20;99.90;;;;;;4952523;29;20201;-60
2021/11/04 12:32:15;;;;;;;2.28;2.00;;;7.20;99.90;;;;;;4952775;29;20941;-59
2021/11/04 12:34:43;;;;;;;1.50;1.30;;;7.10;99.90;;;;;;4948764;29;20268;-59
2021/11/04 12:37:11;;;;;;;1.55;1.40;;;7.10;99.90;;;;;;4952996;29;20198;-58
2021/11/04 12:39:37;;;;;;;1.55;1.45;;;7.10;99.90;;;;;;4953048;29;20784;-58
2021/11/04 12:42:03;;;;;;;2.87;1.67;;;7.10;99.90;;;;;;4952919;29;20189;-47
2021/11/04 12:44:31;;;;;;;1.70;1.52;;;7.10;99.90;;;;;;4952683;28;20460;-57
2021/11/04 12:46:58;;;;;;;1.70;1.43;;;7.00;99.90;;;;;;4947491;29;20181;-56